sensor_id;sensor_type;location;lat;lon;timestamp;P1;durP1;ratioP1;P2;durP2;ratioP2
11533;SDS011;5823;50.588;8.462;2024-01-15T00:01:35;0.90;;;0.68;;
11533;SDS011;5823;50.588;8.462;2024-01-15T00:04:03;1.52;;;1.05;;
11533;SDS011;5823;50.588;8.462;2024-01-15T00:06:29;1.08;;;0.80;;
11533;SDS011;5823;50.588;8.462;2024-01-15T00:08:57;1.17;;;1.02;;
11533;SDS011;5823;50.588;8.462;2024-01-15T00:11:24;1.30;;;1.00;;
11533;SDS011;5823;50.588;8.462;2024-01-15T00:13:50;0.82;;;0.77;;
11533;SDS011;5823;50.588;8.462;2024-01-15T00:16:17;1.23;;;1.02;;
11533;SDS011;5823;50.588;8.462;2024-01-15T00:18:43;1.00;;;0.70;;
11533;SDS011;5823;50.588;8.462;2024-01-15T00:21:10;0.88;;;0.82;;
11533;SDS011;5823;50.588;8.462;2024-01-15T00:23:39;0.80;;;0.73;;
11533;SDS011;5823;50.588;8.462;2024-01-15T00:26:08;0.75;;;0.70;;
11533;SDS011;5823;50.588;8.462;2024-01-15T00:28:34;0.38;;;0.38;;
11533;SDS011;5823;50.588;8.462;2024-01-15T00:31:00;0.73;;;0.60;;
11533;SDS011;5823;50.588;8.462;2024-01-15T00:33:26;0.35;;;0.35;;
11533;SDS011;5823;50.588;8.462;2024-01-15T00:35:52;0.88;;;0.80;;
11533;SDS011;5823;50.588;8.462;2024-01-15T00:38:20;1.17;;;0.70;;
11533;SDS011;5823;50.588;8.462;2024-01-15T00:40:46;0.80;;;0.80;;
11533;SDS011;5823;50.588;8.462;2024-01-15T00:43:13;0.55;;;0.55;;
11533;SDS011;5823;50.588;8.462;2024-01-15T00:45:39;0.77;;;0.55;;
11533;SDS011;5823;50.588;8.462;2024-01-15T00:48:06;0.43;;;0.40;;
11533;SDS011;5823;50.588;8.462;2024-01-15T00:50:32;1.27;;;1.00;;
11533;SDS011;5823;50.588;8.462;2024-01-15T00:52:58;0.55;;;0.50;;
11533;SDS011;5823;50.588;8.462;2024-01-15T00:55:26;0.75;;;0.57;;
11533;SDS011;5823;50.588;8.462;2024-01-15T00:57:53;1.20;;;0.80;;
11533;SDS011;5823;50.588;8.462;2024-01-15T01:00:19;1.50;;;1.30;;
11533;SDS011;5823;50.588;8.462;2024-01-15T01:02:45;0.60;;;0.60;;
11533;SDS011;5823;50.588;8.462;2024-01-15T01:05:12;0.90;;;0.80;;
11533;SDS011;5823;50.588;8.462;2024-01-15T01:07:38;0.70;;;0.68;;
11533;SDS011;5823;50.588;8.462;2024-01-15T01:10:04;0.68;;;0.60;;
11533;SDS011;5823;50.588;8.462;2024-01-15T01:12:33;0.55;;;0.55;;
11533;SDS011;5823;50.588;8.462;2024-01-15T01:14:59;0.60;;;0.52;;
11533;SDS011;5823;50.588;8.462;2024-01-15T01:17:25;0.40;;;0.40;;
11533;SDS011;5823;50.588;8.462;2024-01-15T01:19:51;0.93;;;0.75;;
11533;SDS011;5823;50.588;8.462;2024-01-15T01:22:18;0.57;;;0.50;;
11533;SDS011;5823;50.588;8.462;2024-01-15T01:24:44;0.60;;;0.60;;
11533;SDS011;5823;50.588;8.462;2024-01-15T01:27:10;0.60;;;0.60;;
11533;SDS011;5823;50.588;8.462;2024-01-15T01:29:38;0.57;;;0.50;;
11533;SDS011;5823;50.588;8.462;2024-01-15T01:32:04;0.52;;;0.47;;
11533;SDS011;5823;50.588;8.462;2024-01-15T01:34:32;0.70;;;0.60;;
11533;SDS011;5823;50.588;8.462;2024-01-15T01:36:58;0.68;;;0.50;;
11533;SDS011;5823;50.588;8.462;2024-01-15T01:39:25;0.20;;;0.20;;
11533;SDS011;5823;50.588;8.462;2024-01-15T01:41:51;0.90;;;0.85;;
11533;SDS011;5823;50.588;8.462;2024-01-15T01:44:17;0.80;;;0.68;;
11533;SDS011;5823;50.588;8.462;2024-01-15T01:46:45;0.70;;;0.55;;
11533;SDS011;5823;50.588;8.462;2024-01-15T01:49:11;0.75;;;0.70;;
11533;SDS011;5823;50.588;8.462;2024-01-15T01:51:37;0.98;;;0.88;;
11533;SDS011;5823;50.588;8.462;2024-01-15T01:54:04;1.13;;;0.80;;
11533;SDS011;5823;50.588;8.462;2024-01-15T01:56:31;0.93;;;0.73;;
11533;SDS011;5823;50.588;8.462;2024-01-15T01:58:58;1.08;;;0.85;;
11533;SDS011;5823;50.588;8.462;2024-01-15T02:01:24;1.38;;;1.10;;
11533;SDS011;5823;50.588;8.462;2024-01-15T02:03:52;0.98;;;0.82;;
11533;SDS011;5823;50.588;8.462;2024-01-15T02:06:18;0.90;;;0.70;;
11533;SDS011;5823;50.588;8.462;2024-01-15T02:08:44;0.68;;;0.50;;
11533;SDS011;5823;50.588;8.462;2024-01-15T02:11:11;0.75;;;0.68;;
11533;SDS011;5823;50.588;8.462;2024-01-15T02:13:38;0.52;;;0.52;;
11533;SDS011;5823;50.588;8.462;2024-01-15T02:16:04;0.63;;;0.57;;
11533;SDS011;5823;50.588;8.462;2024-01-15T02:18:38;0.55;;;0.50;;
11533;SDS011;5823;50.588;8.462;2024-01-15T02:21:07;0.20;;;0.20;;
11533;SDS011;5823;50.588;8.462;2024-01-15T02:23:34;0.60;;;0.60;;
11533;SDS011;5823;50.588;8.462;2024-01-15T02:26:00;0.40;;;0.40;;
11533;SDS011;5823;50.588;8.462;2024-01-15T02:28:27;0.63;;;0.60;;
11533;SDS011;5823;50.588;8.462;2024-01-15T02:30:53;1.17;;;0.75;;
11533;SDS011;5823;50.588;8.462;2024-01-15T02:33:19;0.50;;;0.50;;
11533;SDS011;5823;50.588;8.462;2024-01-15T02:35:46;1.20;;;0.85;;
11533;SDS011;5823;50.588;8.462;2024-01-15T02:38:15;1.15;;;0.88;;
11533;SDS011;5823;50.588;8.462;2024-01-15T02:40:42;1.55;;;1.10;;
11533;SDS011;5823;50.588;8.462;2024-01-15T02:43:09;1.70;;;1.13;;
11533;SDS011;5823;50.588;8.462;2024-01-15T02:45:35;1.08;;;0.65;;
11533;SDS011;5823;50.588;8.462;2024-01-15T02:48:02;1.75;;;1.17;;
11533;SDS011;5823;50.588;8.462;2024-01-15T02:50:28;1.08;;;0.93;;
11533;SDS011;5823;50.588;8.462;2024-01-15T02:52:54;0.98;;;0.80;;
11533;SDS011;5823;50.588;8.462;2024-01-15T02:55:20;0.60;;;0.57;;
11533;SDS011;5823;50.588;8.462;2024-01-15T02:57:48;0.63;;;0.63;;
11533;SDS011;5823;50.588;8.462;2024-01-15T03:00:14;0.95;;;0.50;;
11533;SDS011;5823;50.588;8.462;2024-01-15T03:02:41;0.43;;;0.43;;
11533;SDS011;5823;50.588;8.462;2024-01-15T03:05:08;0.95;;;0.60;;
11533;SDS011;5823;50.588;8.462;2024-01-15T03:07:34;1.48;;;0.77;;
11533;SDS011;5823;50.588;8.462;2024-01-15T03:10:02;1.98;;;1.25;;
11533;SDS011;5823;50.588;8.462;2024-01-15T03:12:28;1.10;;;0.95;;
11533;SDS011;5823;50.588;8.462;2024-01-15T03:14:56;2.20;;;1.52;;
11533;SDS011;5823;50.588;8.462;2024-01-15T03:17:22;2.08;;;1.30;;
11533;SDS011;5823;50.588;8.462;2024-01-15T03:19:48;1.15;;;0.77;;
11533;SDS011;5823;50.588;8.462;2024-01-15T03:22:15;1.35;;;1.17;;
11533;SDS011;5823;50.588;8.462;2024-01-15T03:24:42;1.45;;;1.23;;
11533;SDS011;5823;50.588;8.462;2024-01-15T03:27:08;1.58;;;1.02;;
11533;SDS011;5823;50.588;8.462;2024-01-15T03:29:34;1.10;;;1.00;;
11533;SDS011;5823;50.588;8.462;2024-01-15T03:32:02;1.40;;;1.13;;
11533;SDS011;5823;50.588;8.462;2024-01-15T03:34:28;0.57;;;0.50;;
11533;SDS011;5823;50.588;8.462;2024-01-15T03:36:54;0.65;;;0.40;;
11533;SDS011;5823;50.588;8.462;2024-01-15T03:39:20;0.80;;;0.63;;
11533;SDS011;5823;50.588;8.462;2024-01-15T03:41:47;0.50;;;0.50;;
11533;SDS011;5823;50.588;8.462;2024-01-15T03:44:13;0.77;;;0.50;;
11533;SDS011;5823;50.588;8.462;2024-01-15T03:46:39;0.57;;;0.55;;
11533;SDS011;5823;50.588;8.462;2024-01-15T03:49:07;0.98;;;0.70;;
11533;SDS011;5823;50.588;8.462;2024-01-15T03:51:33;2.22;;;1.40;;
11533;SDS011;5823;50.588;8.462;2024-01-15T03:53:59;1.20;;;1.10;;
11533;SDS011;5823;50.588;8.462;2024-01-15T03:56:26;1.40;;;0.90;;
11533;SDS011;5823;50.588;8.462;2024-01-15T03:58:52;0.70;;;0.60;;
11533;SDS011;5823;50.588;8.462;2024-01-15T04:01:18;0.75;;;0.63;;
11533;SDS011;5823;50.588;8.462;2024-01-15T04:03:45;0.73;;;0.73;;
11533;SDS011;5823;50.588;8.462;2024-01-15T04:06:12;0.70;;;0.70;;
11533;SDS011;5823;50.588;8.462;2024-01-15T04:08:38;0.88;;;0.70;;
11533;SDS011;5823;50.588;8.462;2024-01-15T04:11:05;0.52;;;0.52;;
11533;SDS011;5823;50.588;8.462;2024-01-15T04:13:32;0.60;;;0.45;;
11533;SDS011;5823;50.588;8.462;2024-01-15T04:15:58;0.63;;;0.60;;
11533;SDS011;5823;50.588;8.462;2024-01-15T04:18:25;0.95;;;0.75;;
11533;SDS011;5823;50.588;8.462;2024-01-15T04:20:52;0.70;;;0.70;;
11533;SDS011;5823;50.588;8.462;2024-01-15T04:23:19;0.50;;;0.50;;
11533;SDS011;5823;50.588;8.462;2024-01-15T04:25:45;0.95;;;0.75;;
11533;SDS011;5823;50.588;8.462;2024-01-15T04:28:12;0.68;;;0.60;;
11533;SDS011;5823;50.588;8.462;2024-01-15T04:30:38;0.90;;;0.70;;
11533;SDS011;5823;50.588;8.462;2024-01-15T04:33:04;0.20;;;0.20;;
11533;SDS011;5823;50.588;8.462;2024-01-15T04:35:31;0.60;;;0.60;;
11533;SDS011;5823;50.588;8.462;2024-01-15T04:37:57;0.95;;;0.63;;
11533;SDS011;5823;50.588;8.462;2024-01-15T04:40:25;0.65;;;0.63;;
11533;SDS011;5823;50.588;8.462;2024-01-15T04:42:52;0.77;;;0.57;;
11533;SDS011;5823;50.588;8.462;2024-01-15T04:45:18;0.47;;;0.45;;
11533;SDS011;5823;50.588;8.462;2024-01-15T04:47:47;0.47;;;0.40;;
11533;SDS011;5823;50.588;8.462;2024-01-15T04:50:14;0.57;;;0.47;;
11533;SDS011;5823;50.588;8.462;2024-01-15T04:52:40;0.47;;;0.47;;
11533;SDS011;5823;50.588;8.462;2024-01-15T04:55:06;0.50;;;0.43;;
11533;SDS011;5823;50.588;8.462;2024-01-15T04:57:34;0.60;;;0.60;;
11533;SDS011;5823;50.588;8.462;2024-01-15T05:00:00;0.63;;;0.63;;
11533;SDS011;5823;50.588;8.462;2024-01-15T05:02:27;0.75;;;0.60;;
11533;SDS011;5823;50.588;8.462;2024-01-15T05:04:54;1.45;;;0.73;;
11533;SDS011;5823;50.588;8.462;2024-01-15T05:07:20;0.55;;;0.55;;
11533;SDS011;5823;50.588;8.462;2024-01-15T05:09:46;0.85;;;0.68;;
11533;SDS011;5823;50.588;8.462;2024-01-15T05:12:13;0.40;;;0.30;;
11533;SDS011;5823;50.588;8.462;2024-01-15T05:14:40;0.28;;;0.25;;
11533;SDS011;5823;50.588;8.462;2024-01-15T05:17:06;0.40;;;0.40;;
11533;SDS011;5823;50.588;8.462;2024-01-15T05:19:33;0.65;;;0.40;;
11533;SDS011;5823;50.588;8.462;2024-01-15T05:21:59;0.25;;;0.25;;
11533;SDS011;5823;50.588;8.462;2024-01-15T05:24:25;0.20;;;0.20;;
11533;SDS011;5823;50.588;8.462;2024-01-15T05:26:51;0.90;;;0.80;;
11533;SDS011;5823;50.588;8.462;2024-01-15T05:29:18;0.73;;;0.60;;
11533;SDS011;5823;50.588;8.462;2024-01-15T05:31:45;0.43;;;0.43;;
11533;SDS011;5823;50.588;8.462;2024-01-15T05:34:12;1.13;;;0.52;;
11533;SDS011;5823;50.588;8.462;2024-01-15T05:36:38;0.38;;;0.38;;
11533;SDS011;5823;50.588;8.462;2024-01-15T05:39:04;0.82;;;0.60;;
11533;SDS011;5823;50.588;8.462;2024-01-15T05:41:30;0.40;;;0.40;;
11533;SDS011;5823;50.588;8.462;2024-01-15T05:43:57;1.15;;;0.90;;
11533;SDS011;5823;50.588;8.462;2024-01-15T05:46:23;0.90;;;0.77;;
11533;SDS011;5823;50.588;8.462;2024-01-15T05:48:50;0.55;;;0.40;;
11533;SDS011;5823;50.588;8.462;2024-01-15T05:51:17;0.43;;;0.43;;
11533;SDS011;5823;50.588;8.462;2024-01-15T05:53:43;0.63;;;0.57;;
11533;SDS011;5823;50.588;8.462;2024-01-15T05:56:09;0.35;;;0.35;;
11533;SDS011;5823;50.588;8.462;2024-01-15T05:58:36;0.52;;;0.50;;
11533;SDS011;5823;50.588;8.462;2024-01-15T06:01:02;0.77;;;0.65;;
11533;SDS011;5823;50.588;8.462;2024-01-15T06:03:29;1.50;;;1.00;;
11533;SDS011;5823;50.588;8.462;2024-01-15T06:05:56;1.02;;;0.88;;
11533;SDS011;5823;50.588;8.462;2024-01-15T06:08:22;1.00;;;0.68;;
11533;SDS011;5823;50.588;8.462;2024-01-15T06:10:49;0.45;;;0.43;;
11533;SDS011;5823;50.588;8.462;2024-01-15T06:13:15;0.82;;;0.60;;
11533;SDS011;5823;50.588;8.462;2024-01-15T06:15:41;0.57;;;0.55;;
11533;SDS011;5823;50.588;8.462;2024-01-15T06:18:07;0.50;;;0.50;;
11533;SDS011;5823;50.588;8.462;2024-01-15T06:20:34;0.85;;;0.70;;
11533;SDS011;5823;50.588;8.462;2024-01-15T06:23:01;0.52;;;0.45;;
11533;SDS011;5823;50.588;8.462;2024-01-15T06:25:27;0.52;;;0.47;;
11533;SDS011;5823;50.588;8.462;2024-01-15T06:27:54;3.90;;;2.33;;
11533;SDS011;5823;50.588;8.462;2024-01-15T06:30:20;2.28;;;1.55;;
11533;SDS011;5823;50.588;8.462;2024-01-15T06:32:46;1.60;;;1.10;;
11533;SDS011;5823;50.588;8.462;2024-01-15T06:35:12;0.93;;;0.85;;
11533;SDS011;5823;50.588;8.462;2024-01-15T06:37:39;1.42;;;1.13;;
11533;SDS011;5823;50.588;8.462;2024-01-15T06:40:07;1.30;;;0.90;;
11533;SDS011;5823;50.588;8.462;2024-01-15T06:42:34;1.30;;;1.05;;
11533;SDS011;5823;50.588;8.462;2024-01-15T06:45:00;1.17;;;0.85;;
11533;SDS011;5823;50.588;8.462;2024-01-15T06:47:26;1.10;;;0.93;;
11533;SDS011;5823;50.588;8.462;2024-01-15T06:49:52;1.20;;;0.80;;
11533;SDS011;5823;50.588;8.462;2024-01-15T06:52:19;1.13;;;0.93;;
11533;SDS011;5823;50.588;8.462;2024-01-15T06:54:45;1.98;;;1.20;;
11533;SDS011;5823;50.588;8.462;2024-01-15T06:57:12;1.60;;;1.25;;
11533;SDS011;5823;50.588;8.462;2024-01-15T06:59:38;1.15;;;0.55;;
11533;SDS011;5823;50.588;8.462;2024-01-15T07:02:05;0.80;;;0.70;;
11533;SDS011;5823;50.588;8.462;2024-01-15T07:04:32;1.40;;;0.90;;
11533;SDS011;5823;50.588;8.462;2024-01-15T07:06:58;1.00;;;0.80;;
11533;SDS011;5823;50.588;8.462;2024-01-15T07:09:24;1.42;;;1.00;;
11533;SDS011;5823;50.588;8.462;2024-01-15T07:11:50;1.35;;;1.10;;
11533;SDS011;5823;50.588;8.462;2024-01-15T07:14:18;1.27;;;1.13;;
11533;SDS011;5823;50.588;8.462;2024-01-15T07:16:44;1.50;;;1.10;;
11533;SDS011;5823;50.588;8.462;2024-01-15T07:19:11;0.85;;;0.75;;
11533;SDS011;5823;50.588;8.462;2024-01-15T07:21:37;2.03;;;1.15;;
11533;SDS011;5823;50.588;8.462;2024-01-15T07:24:05;1.25;;;1.10;;
11533;SDS011;5823;50.588;8.462;2024-01-15T07:26:31;1.00;;;0.90;;
11533;SDS011;5823;50.588;8.462;2024-01-15T07:28:57;1.00;;;0.90;;
11533;SDS011;5823;50.588;8.462;2024-01-15T07:31:25;0.80;;;0.70;;
11533;SDS011;5823;50.588;8.462;2024-01-15T07:33:51;0.80;;;0.57;;
11533;SDS011;5823;50.588;8.462;2024-01-15T07:36:17;1.40;;;0.93;;
11533;SDS011;5823;50.588;8.462;2024-01-15T07:38:43;1.70;;;1.25;;
11533;SDS011;5823;50.588;8.462;2024-01-15T07:41:09;1.75;;;0.98;;
11533;SDS011;5823;50.588;8.462;2024-01-15T07:43:36;1.63;;;1.10;;
11533;SDS011;5823;50.588;8.462;2024-01-15T07:46:03;1.33;;;0.95;;
11533;SDS011;5823;50.588;8.462;2024-01-15T07:48:31;0.80;;;0.73;;
11533;SDS011;5823;50.588;8.462;2024-01-15T07:50:57;0.63;;;0.63;;
11533;SDS011;5823;50.588;8.462;2024-01-15T07:53:23;0.60;;;0.60;;
11533;SDS011;5823;50.588;8.462;2024-01-15T07:55:50;0.50;;;0.50;;
11533;SDS011;5823;50.588;8.462;2024-01-15T07:58:16;0.60;;;0.55;;
11533;SDS011;5823;50.588;8.462;2024-01-15T08:00:42;1.15;;;0.80;;
11533;SDS011;5823;50.588;8.462;2024-01-15T08:03:09;1.65;;;1.00;;
11533;SDS011;5823;50.588;8.462;2024-01-15T08:05:37;1.42;;;0.80;;
11533;SDS011;5823;50.588;8.462;2024-01-15T08:08:03;1.27;;;1.05;;
11533;SDS011;5823;50.588;8.462;2024-01-15T08:10:29;1.05;;;0.93;;
11533;SDS011;5823;50.588;8.462;2024-01-15T08:12:56;1.35;;;1.10;;
11533;SDS011;5823;50.588;8.462;2024-01-15T08:15:22;1.00;;;0.90;;
11533;SDS011;5823;50.588;8.462;2024-01-15T08:17:48;1.30;;;0.90;;
11533;SDS011;5823;50.588;8.462;2024-01-15T08:20:15;1.17;;;0.85;;
11533;SDS011;5823;50.588;8.462;2024-01-15T08:22:43;0.98;;;0.70;;
11533;SDS011;5823;50.588;8.462;2024-01-15T08:25:09;0.70;;;0.55;;
11533;SDS011;5823;50.588;8.462;2024-01-15T08:27:36;1.15;;;1.05;;
11533;SDS011;5823;50.588;8.462;2024-01-15T08:30:02;1.75;;;1.00;;
11533;SDS011;5823;50.588;8.462;2024-01-15T08:32:29;1.20;;;0.77;;
11533;SDS011;5823;50.588;8.462;2024-01-15T08:34:55;1.10;;;0.80;;
11533;SDS011;5823;50.588;8.462;2024-01-15T08:37:21;0.80;;;0.70;;
11533;SDS011;5823;50.588;8.462;2024-01-15T08:39:49;0.68;;;0.50;;
11533;SDS011;5823;50.588;8.462;2024-01-15T08:42:15;0.88;;;0.70;;
11533;SDS011;5823;50.588;8.462;2024-01-15T08:44:41;1.30;;;1.10;;
11533;SDS011;5823;50.588;8.462;2024-01-15T08:47:08;0.98;;;0.90;;
11533;SDS011;5823;50.588;8.462;2024-01-15T08:49:34;1.75;;;1.00;;
11533;SDS011;5823;50.588;8.462;2024-01-15T08:52:01;1.40;;;0.90;;
11533;SDS011;5823;50.588;8.462;2024-01-15T08:54:27;1.20;;;1.00;;
11533;SDS011;5823;50.588;8.462;2024-01-15T08:56:55;1.30;;;0.88;;
11533;SDS011;5823;50.588;8.462;2024-01-15T08:59:21;1.52;;;0.90;;
11533;SDS011;5823;50.588;8.462;2024-01-15T09:01:50;0.98;;;0.80;;
11533;SDS011;5823;50.588;8.462;2024-01-15T09:04:17;1.50;;;0.98;;
11533;SDS011;5823;50.588;8.462;2024-01-15T09:06:44;0.90;;;0.85;;
11533;SDS011;5823;50.588;8.462;2024-01-15T09:09:11;0.70;;;0.65;;
11533;SDS011;5823;50.588;8.462;2024-01-15T09:11:37;1.23;;;0.90;;
11533;SDS011;5823;50.588;8.462;2024-01-15T09:14:04;1.20;;;1.00;;
11533;SDS011;5823;50.588;8.462;2024-01-15T09:16:30;1.02;;;0.93;;
11533;SDS011;5823;50.588;8.462;2024-01-15T09:18:57;2.10;;;1.20;;
11533;SDS011;5823;50.588;8.462;2024-01-15T09:21:23;1.35;;;1.00;;
11533;SDS011;5823;50.588;8.462;2024-01-15T09:23:50;1.58;;;1.20;;
11533;SDS011;5823;50.588;8.462;2024-01-15T09:26:16;1.42;;;1.10;;
11533;SDS011;5823;50.588;8.462;2024-01-15T09:28:42;1.33;;;0.93;;
11533;SDS011;5823;50.588;8.462;2024-01-15T09:31:10;1.38;;;1.08;;
11533;SDS011;5823;50.588;8.462;2024-01-15T09:33:36;1.63;;;1.20;;
11533;SDS011;5823;50.588;8.462;2024-01-15T09:36:03;1.80;;;1.25;;
11533;SDS011;5823;50.588;8.462;2024-01-15T09:38:30;1.67;;;1.33;;
11533;SDS011;5823;50.588;8.462;2024-01-15T09:40:57;1.55;;;1.05;;
11533;SDS011;5823;50.588;8.462;2024-01-15T09:43:23;1.55;;;1.05;;
11533;SDS011;5823;50.588;8.462;2024-01-15T09:45:50;0.93;;;0.90;;
11533;SDS011;5823;50.588;8.462;2024-01-15T09:48:18;2.28;;;1.30;;
11533;SDS011;5823;50.588;8.462;2024-01-15T09:50:44;1.75;;;1.02;;
11533;SDS011;5823;50.588;8.462;2024-01-15T09:53:11;2.33;;;1.65;;
11533;SDS011;5823;50.588;8.462;2024-01-15T09:55:37;3.83;;;2.13;;
11533;SDS011;5823;50.588;8.462;2024-01-15T09:58:04;2.75;;;2.03;;
11533;SDS011;5823;50.588;8.462;2024-01-15T10:00:30;2.13;;;1.73;;
11533;SDS011;5823;50.588;8.462;2024-01-15T10:02:56;2.92;;;2.10;;
11533;SDS011;5823;50.588;8.462;2024-01-15T10:05:24;2.75;;;1.70;;
11533;SDS011;5823;50.588;8.462;2024-01-15T10:07:50;1.40;;;1.30;;
11533;SDS011;5823;50.588;8.462;2024-01-15T10:10:17;1.60;;;1.23;;
11533;SDS011;5823;50.588;8.462;2024-01-15T10:12:43;1.52;;;1.20;;
11533;SDS011;5823;50.588;8.462;2024-01-15T10:15:10;1.30;;;1.10;;
11533;SDS011;5823;50.588;8.462;2024-01-15T10:17:37;0.93;;;0.80;;
11533;SDS011;5823;50.588;8.462;2024-01-15T10:20:03;2.70;;;1.52;;
11533;SDS011;5823;50.588;8.462;2024-01-15T10:22:34;1.30;;;1.00;;
11533;SDS011;5823;50.588;8.462;2024-01-15T10:25:03;1.38;;;1.00;;
11533;SDS011;5823;50.588;8.462;2024-01-15T10:27:29;1.35;;;0.98;;
11533;SDS011;5823;50.588;8.462;2024-01-15T10:29:55;1.73;;;1.35;;
11533;SDS011;5823;50.588;8.462;2024-01-15T10:32:24;1.05;;;0.95;;
11533;SDS011;5823;50.588;8.462;2024-01-15T10:34:51;1.02;;;0.93;;
11533;SDS011;5823;50.588;8.462;2024-01-15T10:37:18;1.30;;;0.80;;
11533;SDS011;5823;50.588;8.462;2024-01-15T10:39:47;1.52;;;1.30;;
11533;SDS011;5823;50.588;8.462;2024-01-15T10:42:13;1.48;;;1.00;;
11533;SDS011;5823;50.588;8.462;2024-01-15T10:44:40;1.30;;;0.63;;
11533;SDS011;5823;50.588;8.462;2024-01-15T10:47:08;0.90;;;0.90;;
11533;SDS011;5823;50.588;8.462;2024-01-15T10:49:34;0.90;;;0.80;;
11533;SDS011;5823;50.588;8.462;2024-01-15T10:52:01;0.70;;;0.70;;
11533;SDS011;5823;50.588;8.462;2024-01-15T10:54:28;0.93;;;0.80;;
11533;SDS011;5823;50.588;8.462;2024-01-15T10:56:56;1.85;;;1.30;;
11533;SDS011;5823;50.588;8.462;2024-01-15T10:59:23;1.50;;;1.20;;
11533;SDS011;5823;50.588;8.462;2024-01-15T11:01:49;1.58;;;1.35;;
11533;SDS011;5823;50.588;8.462;2024-01-15T11:04:18;1.30;;;1.20;;
11533;SDS011;5823;50.588;8.462;2024-01-15T11:06:45;1.30;;;1.10;;
11533;SDS011;5823;50.588;8.462;2024-01-15T11:09:12;1.55;;;1.13;;
11533;SDS011;5823;50.588;8.462;2024-01-15T11:11:40;2.33;;;1.40;;
11533;SDS011;5823;50.588;8.462;2024-01-15T11:14:08;1.45;;;1.05;;
11533;SDS011;5823;50.588;8.462;2024-01-15T11:16:53;2.50;;;1.67;;
11533;SDS011;5823;50.588;8.462;2024-01-15T11:19:20;1.35;;;1.00;;
11533;SDS011;5823;50.588;8.462;2024-01-15T11:21:46;1.40;;;0.95;;
11533;SDS011;5823;50.588;8.462;2024-01-15T11:24:12;1.05;;;0.90;;
11533;SDS011;5823;50.588;8.462;2024-01-15T11:26:57;1.20;;;1.10;;
11533;SDS011;5823;50.588;8.462;2024-01-15T11:29:31;1.17;;;0.88;;
11533;SDS011;5823;50.588;8.462;2024-01-15T11:31:59;1.20;;;1.10;;
11533;SDS011;5823;50.588;8.462;2024-01-15T11:37:11;1.23;;;1.00;;
11533;SDS011;5823;50.588;8.462;2024-01-15T11:39:41;1.20;;;0.98;;
11533;SDS011;5823;50.588;8.462;2024-01-15T11:42:11;0.90;;;0.80;;
11533;SDS011;5823;50.588;8.462;2024-01-15T11:44:39;1.67;;;0.90;;
11533;SDS011;5823;50.588;8.462;2024-01-15T11:47:06;1.40;;;1.23;;
11533;SDS011;5823;50.588;8.462;2024-01-15T11:49:40;0.77;;;0.77;;
11533;SDS011;5823;50.588;8.462;2024-01-15T11:52:12;0.73;;;0.70;;
11533;SDS011;5823;50.588;8.462;2024-01-15T11:54:41;0.80;;;0.80;;
11533;SDS011;5823;50.588;8.462;2024-01-15T11:57:13;1.55;;;1.13;;
11533;SDS011;5823;50.588;8.462;2024-01-15T11:59:46;2.20;;;1.35;;
11533;SDS011;5823;50.588;8.462;2024-01-15T12:02:13;1.58;;;1.48;;
11533;SDS011;5823;50.588;8.462;2024-01-15T12:04:40;2.78;;;1.80;;
11533;SDS011;5823;50.588;8.462;2024-01-15T12:07:06;1.80;;;1.50;;
11533;SDS011;5823;50.588;8.462;2024-01-15T12:09:32;2.85;;;2.08;;
11533;SDS011;5823;50.588;8.462;2024-01-15T12:12:00;1.83;;;1.60;;
11533;SDS011;5823;50.588;8.462;2024-01-15T12:14:30;1.80;;;1.52;;
11533;SDS011;5823;50.588;8.462;2024-01-15T12:16:58;2.00;;;1.58;;
11533;SDS011;5823;50.588;8.462;2024-01-15T12:19:24;1.48;;;1.27;;
11533;SDS011;5823;50.588;8.462;2024-01-15T12:21:50;1.90;;;1.45;;
11533;SDS011;5823;50.588;8.462;2024-01-15T12:24:17;1.20;;;1.10;;
11533;SDS011;5823;50.588;8.462;2024-01-15T12:26:43;1.20;;;1.08;;
11533;SDS011;5823;50.588;8.462;2024-01-15T12:29:10;0.95;;;0.80;;
11533;SDS011;5823;50.588;8.462;2024-01-15T12:31:36;1.17;;;1.08;;
11533;SDS011;5823;50.588;8.462;2024-01-15T12:34:03;0.70;;;0.70;;
11533;SDS011;5823;50.588;8.462;2024-01-15T12:36:30;1.02;;;0.82;;
11533;SDS011;5823;50.588;8.462;2024-01-15T12:38:58;0.93;;;0.80;;
11533;SDS011;5823;50.588;8.462;2024-01-15T12:41:25;1.13;;;0.90;;
11533;SDS011;5823;50.588;8.462;2024-01-15T12:43:51;0.60;;;0.60;;
11533;SDS011;5823;50.588;8.462;2024-01-15T12:46:17;0.40;;;0.40;;
11533;SDS011;5823;50.588;8.462;2024-01-15T12:48:44;0.93;;;0.88;;
11533;SDS011;5823;50.588;8.462;2024-01-15T12:51:12;0.57;;;0.57;;
11533;SDS011;5823;50.588;8.462;2024-01-15T12:53:38;0.43;;;0.40;;
11533;SDS011;5823;50.588;8.462;2024-01-15T12:56:04;0.25;;;0.25;;
11533;SDS011;5823;50.588;8.462;2024-01-15T12:58:30;0.32;;;0.32;;
11533;SDS011;5823;50.588;8.462;2024-01-15T13:00:56;0.32;;;0.32;;
11533;SDS011;5823;50.588;8.462;2024-01-15T13:03:23;0.40;;;0.40;;
11533;SDS011;5823;50.588;8.462;2024-01-15T13:05:49;0.68;;;0.47;;
11533;SDS011;5823;50.588;8.462;2024-01-15T13:08:18;0.38;;;0.38;;
11533;SDS011;5823;50.588;8.462;2024-01-15T13:10:45;0.73;;;0.70;;
11533;SDS011;5823;50.588;8.462;2024-01-15T13:13:11;0.70;;;0.50;;
11533;SDS011;5823;50.588;8.462;2024-01-15T13:15:37;1.30;;;1.10;;
11533;SDS011;5823;50.588;8.462;2024-01-15T13:18:04;0.70;;;0.60;;
11533;SDS011;5823;50.588;8.462;2024-01-15T13:20:30;0.70;;;0.65;;
11533;SDS011;5823;50.588;8.462;2024-01-15T13:22:57;0.80;;;0.80;;
11533;SDS011;5823;50.588;8.462;2024-01-15T13:25:24;0.60;;;0.60;;
11533;SDS011;5823;50.588;8.462;2024-01-15T13:27:50;0.40;;;0.40;;
11533;SDS011;5823;50.588;8.462;2024-01-15T13:30:17;0.40;;;0.40;;
11533;SDS011;5823;50.588;8.462;2024-01-15T13:32:43;0.90;;;0.50;;
11533;SDS011;5823;50.588;8.462;2024-01-15T13:35:09;0.50;;;0.50;;
11533;SDS011;5823;50.588;8.462;2024-01-15T13:37:38;0.35;;;0.35;;
11533;SDS011;5823;50.588;8.462;2024-01-15T13:40:06;0.38;;;0.38;;
11533;SDS011;5823;50.588;8.462;2024-01-15T13:42:36;0.77;;;0.70;;
11533;SDS011;5823;50.588;8.462;2024-01-15T13:45:03;0.30;;;0.30;;
11533;SDS011;5823;50.588;8.462;2024-01-15T13:47:30;0.30;;;0.30;;
11533;SDS011;5823;50.588;8.462;2024-01-15T13:49:57;0.25;;;0.20;;
11533;SDS011;5823;50.588;8.462;2024-01-15T13:52:24;0.10;;;0.10;;
11533;SDS011;5823;50.588;8.462;2024-01-15T13:54:50;0.40;;;0.25;;
11533;SDS011;5823;50.588;8.462;2024-01-15T13:57:16;0.10;;;0.10;;
11533;SDS011;5823;50.588;8.462;2024-01-15T13:59:45;0.13;;;0.13;;
11533;SDS011;5823;50.588;8.462;2024-01-15T14:02:11;0.20;;;0.20;;
11533;SDS011;5823;50.588;8.462;2024-01-15T14:04:39;0.20;;;0.20;;
11533;SDS011;5823;50.588;8.462;2024-01-15T14:07:06;0.43;;;0.43;;
11533;SDS011;5823;50.588;8.462;2024-01-15T14:09:32;0.45;;;0.45;;
11533;SDS011;5823;50.588;8.462;2024-01-15T14:11:58;0.52;;;0.40;;
11533;SDS011;5823;50.588;8.462;2024-01-15T14:14:25;0.30;;;0.30;;
11533;SDS011;5823;50.588;8.462;2024-01-15T14:16:52;0.40;;;0.40;;
11533;SDS011;5823;50.588;8.462;2024-01-15T14:19:19;0.40;;;0.40;;
11533;SDS011;5823;50.588;8.462;2024-01-15T14:21:45;0.20;;;0.20;;
11533;SDS011;5823;50.588;8.462;2024-01-15T14:24:11;0.40;;;0.32;;
11533;SDS011;5823;50.588;8.462;2024-01-15T14:26:38;0.50;;;0.50;;
11533;SDS011;5823;50.588;8.462;2024-01-15T14:29:04;0.52;;;0.50;;
11533;SDS011;5823;50.588;8.462;2024-01-15T14:31:31;0.73;;;0.40;;
11533;SDS011;5823;50.588;8.462;2024-01-15T14:34:00;1.08;;;0.70;;
11533;SDS011;5823;50.588;8.462;2024-01-15T14:36:28;0.70;;;0.70;;
11533;SDS011;5823;50.588;8.462;2024-01-15T14:38:54;0.50;;;0.50;;
11533;SDS011;5823;50.588;8.462;2024-01-15T14:41:20;0.43;;;0.30;;
11533;SDS011;5823;50.588;8.462;2024-01-15T14:43:47;0.35;;;0.35;;
11533;SDS011;5823;50.588;8.462;2024-01-15T14:46:13;0.43;;;0.43;;
11533;SDS011;5823;50.588;8.462;2024-01-15T14:48:39;0.20;;;0.20;;
11533;SDS011;5823;50.588;8.462;2024-01-15T14:51:07;0.38;;;0.38;;
11533;SDS011;5823;50.588;8.462;2024-01-15T14:53:33;0.40;;;0.38;;
11533;SDS011;5823;50.588;8.462;2024-01-15T14:56:00;0.40;;;0.38;;
11533;SDS011;5823;50.588;8.462;2024-01-15T14:58:27;0.40;;;0.40;;
11533;SDS011;5823;50.588;8.462;2024-01-15T15:00:54;0.25;;;0.25;;